createdAt,value
2023-05-23T00:00:01.449Z,75.93
2023-05-23T00:05:07.368Z,67.47
2023-05-23T00:10:09.593Z,59.28
2023-05-23T00:15:12.222Z,66.63
2023-05-23T00:20:13.970Z,72.55
2023-05-23T00:25:17.974Z,62.10
2023-05-23T00:30:21.803Z,69.40
2023-05-23T00:35:26.394Z,56.88
2023-05-23T00:40:31.158Z,61.50
2023-05-23T00:45:37.339Z,64.03
2023-05-23T00:50:41.284Z,59.67
2023-05-23T00:55:46.160Z,59.22
2023-05-23T01:00:54.550Z,50.78
2023-05-23T01:05:58.454Z,42.70
2023-05-23T01:11:05.186Z,48.70
2023-05-23T01:16:16.180Z,42.70
2023-05-23T01:21:26.064Z,46.33
2023-05-23T01:26:58.118Z,48.08
2023-05-23T01:32:11.578Z,51.53
2023-05-23T01:37:19.771Z,53.45
2023-05-23T01:42:21.591Z,55.78
2023-05-23T01:47:26.904Z,52.30
2023-05-23T01:52:31.415Z,46.42
2023-05-23T01:57:37.938Z,49.42
2023-05-23T02:02:39.787Z,55.85
2023-05-23T02:07:46.109Z,50.50
2023-05-23T02:12:47.869Z,60.38
2023-05-23T02:17:49.706Z,47.30
2023-05-23T02:22:51.528Z,51.70
2023-05-23T02:27:56.304Z,56.95
2023-05-23T02:33:01.262Z,57.08
2023-05-23T02:38:03.202Z,48.15
2023-05-23T02:43:05.147Z,39.55
2023-05-23T02:48:07.037Z,33.72
2023-05-23T02:53:13.633Z,39.70
2023-05-23T02:58:16.436Z,43.03
2023-05-23T03:03:23.617Z,41.38
2023-05-23T03:08:25.620Z,41.55
2023-05-23T03:13:28.721Z,46.83
2023-05-23T03:18:30.791Z,44.35
2023-05-23T03:23:32.549Z,41.72
2023-05-23T03:28:34.397Z,38.65
2023-05-23T03:33:40.351Z,33.38
2023-05-23T03:38:42.417Z,45.55
2023-05-23T03:43:44.352Z,46.00
2023-05-23T03:48:49.648Z,33.58
2023-05-23T03:53:51.417Z,35.42
2023-05-23T03:58:55.764Z,40.65
2023-05-23T04:03:58.153Z,35.83
2023-05-23T04:09:02.621Z,31.05
2023-05-23T04:14:06.569Z,30.33
2023-05-23T04:19:12.471Z,36.63
2023-05-23T04:24:16.584Z,33.63
2023-05-23T04:29:18.517Z,33.65
2023-05-23T04:34:23.510Z,32.90
2023-05-23T04:39:25.711Z,36.28
2023-05-23T04:44:50.093Z,29.80
2023-05-23T04:49:57.623Z,31.60
2023-05-23T04:55:01.276Z,34.85
2023-05-23T05:00:10.227Z,28.52
2023-05-23T05:05:12.342Z,29.52
2023-05-23T05:10:17.265Z,25.40
2023-05-23T05:15:21.906Z,23.90
2023-05-23T05:20:28.649Z,25.98
2023-05-23T05:25:34.563Z,26.80
2023-05-23T05:30:39.022Z,26.85
2023-05-23T05:35:43.776Z,23.88
2023-05-23T05:40:48.334Z,21.75
2023-05-23T05:45:51.449Z,23.23
2023-05-23T05:50:56.356Z,22.00
2023-05-23T05:55:58.142Z,18.65
2023-05-23T06:01:02.228Z,23.73
2023-05-23T06:06:06.951Z,16.45
2023-05-23T06:11:08.970Z,20.52
2023-05-23T06:16:10.848Z,20.45
2023-05-23T06:21:12.646Z,28.10
2023-05-23T06:26:14.395Z,24.70
2023-05-23T06:31:18.359Z,21.70
2023-05-23T06:36:24.679Z,26.15
2023-05-23T06:41:27.673Z,26.27
2023-05-23T06:46:32.899Z,21.02
2023-05-23T06:51:36.947Z,28.67
2023-05-23T06:56:42.100Z,32.72
2023-05-23T07:01:46.708Z,31.50
2023-05-23T07:06:50.073Z,19.80
2023-05-23T07:11:54.873Z,19.90
2023-05-23T07:16:56.980Z,20.23
2023-05-23T07:21:59.310Z,19.38
2023-05-23T07:27:04.011Z,20.33
2023-05-23T07:32:08.838Z,15.20
2023-05-23T07:37:15.015Z,19.10
2023-05-23T07:42:19.267Z,26.25
2023-05-23T07:47:24.453Z,22.25
2023-05-23T07:52:29.776Z,20.45
2023-05-23T07:57:34.369Z,16.90
2023-05-23T08:02:39.447Z,17.02
2023-05-23T08:07:41.404Z,21.33
2023-05-23T08:12:46.003Z,19.10
2023-05-23T08:17:56.931Z,17.30
2023-05-23T08:23:02.627Z,16.63
2023-05-23T08:28:04.897Z,17.50
2023-05-23T08:33:35.178Z,18.30
2023-05-23T08:38:37.097Z,18.83
2023-05-23T08:43:50.204Z,26.13
2023-05-23T08:49:01.036Z,20.50
2023-05-23T08:54:13.167Z,19.70
2023-05-23T08:59:15.239Z,16.30
2023-05-23T09:04:18.177Z,15.90
2023-05-23T09:09:34.229Z,23.58
2023-05-23T09:14:41.517Z,27.45
2023-05-23T09:19:47.043Z,23.80
2023-05-23T09:25:00.421Z,23.92
2023-05-23T09:30:08.179Z,16.90
2023-05-23T09:35:14.420Z,21.58
2023-05-23T09:40:19.121Z,24.60
2023-05-23T09:45:34.524Z,21.45
2023-05-23T09:50:39.453Z,24.52
2023-05-23T09:55:41.417Z,21.75
2023-05-23T10:00:46.655Z,22.15
2023-05-23T10:05:53.569Z,27.20
2023-05-23T10:11:13.981Z,22.48
2023-05-23T10:16:24.072Z,14.27
2023-05-23T10:21:33.850Z,18.45
2023-05-23T10:26:36.003Z,17.40
2023-05-23T10:31:38.178Z,22.80
2023-05-23T10:36:59.902Z,19.20
2023-05-23T10:42:12.072Z,19.40
2023-05-23T10:47:28.379Z,21.25
2023-05-23T10:52:40.032Z,22.27
2023-05-23T10:57:43.913Z,21.92
2023-05-23T11:03:09.075Z,16.83
2023-05-23T11:08:16.478Z,21.67
2023-05-23T11:13:23.676Z,18.98
2023-05-23T11:18:29.121Z,23.35
2023-05-23T11:23:41.903Z,22.98
2023-05-23T11:28:59.109Z,20.80
2023-05-23T11:34:06.395Z,21.67
2023-05-23T11:39:11.214Z,23.08
2023-05-23T11:44:15.719Z,25.20
2023-05-23T11:49:18.692Z,15.90
2023-05-23T11:54:24.469Z,22.38
2023-05-23T11:59:30.939Z,25.63
2023-05-23T12:04:37.776Z,19.95
2023-05-23T12:09:44.239Z,15.35
2023-05-23T12:14:46.316Z,20.15
2023-05-23T12:19:48.140Z,21.60
2023-05-23T12:24:50.100Z,18.70
2023-05-23T12:30:07.389Z,22.27
2023-05-23T12:35:16.216Z,23.27
2023-05-23T12:40:19.877Z,20.48
2023-05-23T12:45:25.630Z,17.27
2023-05-23T12:50:27.541Z,17.98
2023-05-23T12:55:33.874Z,15.50
2023-05-23T13:00:35.707Z,21.40
2023-05-23T13:05:39.076Z,15.55
2023-05-23T13:10:41.010Z,19.10
2023-05-23T13:15:46.273Z,18.63
2023-05-23T13:20:49.124Z,21.33
2023-05-23T13:25:51.264Z,22.08
2023-05-23T13:30:53.096Z,17.85
2023-05-23T13:35:57.395Z,21.08
2023-05-23T13:41:01.377Z,15.13
2023-05-23T13:46:05.566Z,12.23
2023-05-23T13:51:07.686Z,15.77
2023-05-23T13:56:10.185Z,15.90
2023-05-23T14:01:12.288Z,13.93
2023-05-23T14:06:16.605Z,11.93
2023-05-23T14:11:18.345Z,19.77
2023-05-23T14:16:22.575Z,17.27
2023-05-23T14:21:24.334Z,19.13
2023-05-23T14:26:29.107Z,13.40
2023-05-23T14:31:32.029Z,19.17
2023-05-23T14:36:35.851Z,19.05
2023-05-23T14:41:39.884Z,13.55
2023-05-23T14:46:48.498Z,17.20
2023-05-23T14:51:51.710Z,13.70
2023-05-23T14:56:56.810Z,12.07
2023-05-23T15:01:58.817Z,12.52
2023-05-23T15:07:01.091Z,14.57
2023-05-23T15:12:09.822Z,19.75
2023-05-23T15:17:20.172Z,16.50
2023-05-23T15:22:36.437Z,18.38
2023-05-23T15:27:44.921Z,12.90
2023-05-23T15:32:47.958Z,15.13
2023-05-23T15:37:49.810Z,21.35
2023-05-23T15:42:53.654Z,20.05
2023-05-23T15:47:57.233Z,17.42
2023-05-23T15:52:59.088Z,14.40
2023-05-23T15:58:03.209Z,17.95
2023-05-23T16:03:05.046Z,18.17
2023-05-23T16:08:06.898Z,16.02
2023-05-23T16:13:09.184Z,17.52
2023-05-23T16:18:15.295Z,16.25
2023-05-23T16:23:19.393Z,16.75
2023-05-23T16:28:21.769Z,14.82
2023-05-23T16:33:23.595Z,16.45
2023-05-23T16:38:25.486Z,15.18
2023-05-23T16:43:27.471Z,14.25
2023-05-23T16:48:29.240Z,20.27
2023-05-23T16:53:31.018Z,20.40
2023-05-23T16:58:38.438Z,15.77
2023-05-23T17:03:41.548Z,18.55
2023-05-23T17:08:48.245Z,16.25
2023-05-23T17:13:50.302Z,17.00
2023-05-23T17:18:52.570Z,19.48
2023-05-23T17:23:56.473Z,22.30
2023-05-23T17:29:00.460Z,18.85
2023-05-23T17:34:02.352Z,14.57
2023-05-23T17:39:07.023Z,15.35
2023-05-23T17:44:08.823Z,18.85
2023-05-23T17:49:10.504Z,17.52
2023-05-23T17:54:12.327Z,20.33
2023-05-23T17:59:15.624Z,15.70
2023-05-23T18:04:22.206Z,20.35
2023-05-23T18:09:26.365Z,16.35
2023-05-23T18:14:30.725Z,26.33
2023-05-23T18:19:32.585Z,24.10
2023-05-23T18:24:34.439Z,15.68
2023-05-23T18:29:38.753Z,22.38
2023-05-23T18:34:40.943Z,21.30
2023-05-23T18:39:42.782Z,25.48
2023-05-23T18:44:44.518Z,27.80
2023-05-23T18:49:46.410Z,22.63
2023-05-23T18:54:54.011Z,26.60
2023-05-23T18:59:58.599Z,20.27
2023-05-23T19:05:02.831Z,23.70
2023-05-23T19:10:09.777Z,24.67
2023-05-23T19:15:13.745Z,18.08
2023-05-23T19:20:20.047Z,29.85
2023-05-23T19:25:22.097Z,26.45
2023-05-23T19:30:24.410Z,31.83
2023-05-23T19:35:26.363Z,38.53
2023-05-23T19:40:28.189Z,31.48
2023-05-23T19:45:33.065Z,31.73
2023-05-23T19:50:37.441Z,30.60
2023-05-23T19:55:39.966Z,29.55
2023-05-23T20:00:42.967Z,31.52
2023-05-23T20:05:45.182Z,40.10
2023-05-23T20:10:47.157Z,34.45
2023-05-23T20:15:51.342Z,37.10
2023-05-23T20:20:53.435Z,33.63
2023-05-23T20:26:02.734Z,38.92
2023-05-23T20:31:07.516Z,31.27
2023-05-23T20:36:09.313Z,34.08
2023-05-23T20:41:11.342Z,32.67
2023-05-23T20:46:15.868Z,31.38
2023-05-23T20:51:19.963Z,37.58
2023-05-23T20:56:22.623Z,35.13
2023-05-23T21:01:26.683Z,31.13
2023-05-23T21:06:28.448Z,36.00
2023-05-23T21:11:32.979Z,26.75
2023-05-23T21:16:34.748Z,33.67
2023-05-23T21:21:38.713Z,37.25
2023-05-23T21:26:45.268Z,40.33
2023-05-23T21:31:50.116Z,44.83
2023-05-23T21:36:53.384Z,36.38
2023-05-23T21:41:58.111Z,31.35
2023-05-23T21:47:02.585Z,37.33
2023-05-23T21:52:07.283Z,38.63
2023-05-23T21:57:09.031Z,38.45
2023-05-23T22:02:11.453Z,37.15
2023-05-23T22:07:15.652Z,42.30
2023-05-23T22:12:19.554Z,35.20
2023-05-23T22:17:26.287Z,38.25
2023-05-23T22:22:30.480Z,36.72
2023-05-23T22:27:32.633Z,33.95
2023-05-23T22:32:34.356Z,42.70
2023-05-23T22:37:36.218Z,37.17
2023-05-23T22:42:40.424Z,36.15
2023-05-23T22:47:48.381Z,31.50
2023-05-23T22:52:50.706Z,36.63
2023-05-23T22:57:52.511Z,31.02
2023-05-23T23:02:54.540Z,36.42
2023-05-23T23:07:56.281Z,31.77
2023-05-23T23:13:00.324Z,37.58
2023-05-23T23:18:05.926Z,35.20
2023-05-23T23:23:07.809Z,31.30
2023-05-23T23:28:09.601Z,37.93
2023-05-23T23:33:11.776Z,38.17
2023-05-23T23:38:13.532Z,30.33
2023-05-23T23:43:17.878Z,32.17
2023-05-23T23:48:19.776Z,33.43
2023-05-23T23:53:30.103Z,31.57
2023-05-23T23:58:36.582Z,32.83
